GW5121 Weather Reports


time (UTC)temp
F
wind
direction
speed
knots
gust
knots
rain 1hr
in
rain 24hr
in
rain mn
in
humidity
%
barometer
mb
20260906123410 68 339 0.0 1.7 0.00 0.00 0.00 99 1016.4
20260906122910 68 339 1.7 1.7 0.00 0.00 0.00 99 1016.1
20260906122405 68 339 1.7 1.7 0.00 0.00 0.00 99 1016.1
20260906121902 68 339 1.7 1.7 0.00 0.00 0.00 99 1016.0
20260906121357 68 339 1.7 1.7 0.00 0.00 0.00 99 1016.3
20260906120853 68 339 0.9 1.7 0.00 0.00 0.00 99 1015.9
20260906120349 68 339 0.9 1.7 0.00 0.00 0.00 99 1015.9
20260906115845 68 339 0.9 1.7 0.00 0.00 0.00 99 1015.8
20260906115340 68 339 1.7 1.7 0.00 0.00 0.00 99 1015.8
20260906114839 68 339 0.9 1.7 0.00 0.00 0.00 99 1015.8
20260906114335 68 339 0.0 0.0 0.00 0.00 0.00 99 1015.7
20260906113830 68 339 0.9 0.9 0.00 0.00 0.00 99 1015.7
20260906113329 68 322 1.7 2.6 0.00 0.00 0.00 99 1015.5
20260906112824 68 322 0.0 0.9 0.00 0.00 0.00 99 1015.5
20260906112320 68 322 0.0 0.9 0.00 0.00 0.00 99 1015.6
20260906111820 68 322 0.9 1.7 0.00 0.00 0.00 99 1015.3
20260906111319 68 322 0.9 1.7 0.00 0.00 0.00 99 1015.4
20260906110814 68 322 0.9 0.9 0.00 0.00 0.00 99 1015.1
20260906110310 68 322 0.9 1.7 0.00 0.00 0.00 99 1015.1
20260906105809 68 322 0.9 0.9 0.00 0.00 0.00 99 1014.9
20260906105306 68 322 0.9 1.7 0.00 0.00 0.00 99 1014.8
20260906104800 68 322 0.9 2.6 0.00 0.00 0.00 99 1014.8
20260906104259 68 322 0.9 1.7 0.00 0.00 0.00 99 1014.9
20260906103757 68 322 1.7 1.7 0.00 0.00 0.00 99 1014.9
20260906103257 68 322 0.9 1.7 0.00 0.00 0.00 99 1015.0
20260906102753 68 322 0.9 0.9 0.00 0.00 0.00 99 1014.8
20260906102251 68 322 0.0 1.7 0.00 0.00 0.00 99 1014.7
20260906101747 68 322 1.7 2.6 0.00 0.00 0.00 99 1014.6
20260906101242 68 322 0.9 1.7 0.00 0.00 0.00 99 1014.8
20260906100737 68 322 0.9 1.7 0.00 0.00 0.00 99 1014.8
20260906100236 68 322 1.7 1.7 0.00 0.00 0.00 99 1014.6
20260906095732 68 322 0.9 0.9 0.00 0.00 0.00 99 1014.4
20260906095227 68 322 0.9 0.9 0.00 0.00 0.00 99 1014.7
20260906094726 68 322 0.0 1.7 0.00 0.00 0.00 99 1014.7
20260906094222 69 322 0.0 0.9 0.00 0.00 0.00 99 1014.7
20260906093718 69 322 0.0 0.9 0.00 0.00 0.00 99 1014.7
20260906093213 69 322 0.0 0.0 0.00 0.00 0.00 99 1014.6
20260906092709 69 322 0.0 0.9 0.00 0.00 0.00 99 1014.7
20260906092208 69 322 0.0 0.9 0.00 0.00 0.00 99 1014.8
20260906091704 69 322 0.0 0.0 0.00 0.00 0.00 99 1014.8
20260906091200 69 322 0.0 0.0 0.00 0.00 0.00 99 1014.8
20260906090656 69 322 0.0 0.0 0.00 0.00 0.00 99 1014.8
20260906090155 69 322 0.0 0.0 0.00 0.00 0.00 99 1014.7
20260906085655 69 322 0.0 0.0 0.00 0.00 0.00 99 1014.7
20260906085154 69 322 0.0 0.0 0.00 0.00 0.00 99 1014.8
20260906084649 69 322 0.0 0.0 0.00 0.00 0.00 99 1014.7
20260906084148 69 322 0.0 0.0 0.00 0.00 0.00 99 1014.7
20260906083643 69 322 0.0 0.0 0.00 0.00 0.00 99 1014.7
20260906083139 69 322 0.0 0.0 0.00 0.00 0.00 99 1014.5
20260906082634 69 322 0.0 0.0 0.00 0.00 0.00 99 1014.6
20260906082129 69 322 0.0 0.0 0.00 0.00 0.00 99 1014.6
20260906081625 69 322 0.9 0.9 0.00 0.00 0.00 99 1014.6
20260906081120 69 322 0.0 0.0 0.00 0.00 0.00 99 1014.5
20260906080617 69 322 0.0 0.0 0.00 0.00 0.00 99 1014.5
20260906080113 69 322 0.0 0.9 0.00 0.00 0.00 99 1014.6
20260906075612 69 322 0.9 0.9 0.00 0.00 0.00 99 1014.6
20260906075107 69 322 0.9 0.9 0.00 0.00 0.00 99 1014.4
20260906074602 69 322 0.9 0.9 0.00 0.00 0.00 99 1014.5
20260906074101 69 322 0.9 0.9 0.00 0.00 0.00 99 1014.3
20260906073556 69 322 0.0 0.0 0.00 0.00 0.00 99 1014.3
20260906073046 69 322 0.0 0.0 0.00 0.00 0.00 99 1014.2
20260906072540 69 322 0.0 0.0 0.00 0.00 0.00 99 1014.4
20260906072037 69 322 0.0 0.0 0.00 0.00 0.00 99 1014.3
20260906071533 69 322 0.9 0.9 0.00 0.00 0.00 99 1014.5
20260906071027 69 322 0.0 0.0 0.00 0.00 0.00 99 1014.4
20260906070524 69 322 0.9 0.9 0.00 0.00 0.00 99 1014.5
20260906070020 69 322 0.0 0.0 0.00 0.00 0.00 99 1014.5
20260906065519 69 322 0.0 0.9 0.00 0.00 0.00 99 1014.6
20260906065015 69 322 0.0 0.9 0.00 0.00 0.00 99 1014.6
20260906064511 69 322 0.0 1.7 0.00 0.00 0.00 99 1014.7
20260906064011 69 322 1.7 1.7 0.00 0.00 0.00 99 1014.7
20260906063506 69 322 0.9 1.7 0.00 0.00 0.00 99 1014.8
20260906063001 69 322 0.0 0.0 0.00 0.00 0.00 99 1014.6
20260906062456 69 322 0.0 0.0 0.00 0.00 0.00 99 1014.6
20260906061951 69 322 0.0 0.0 0.00 0.00 0.00 99 1014.6
20260906061447 69 322 0.0 0.0 0.00 0.00 0.00 99 1014.5
20260906060941 69 322 0.0 0.0 0.00 0.00 0.00 99 1014.5
20260906060438 69 322 0.0 0.0 0.00 0.00 0.00 99 1014.5
20260906055934 69 322 0.0 0.0 0.00 0.00 0.00 99 1014.6
20260906055430 69 322 0.0 0.0 0.00 0.00 0.00 99 1014.6
20260906054925 69 322 0.0 0.0 0.00 0.00 0.00 99 1014.8
20260906054420 69 322 0.0 0.0 0.00 0.00 0.00 99 1014.6
20260906053916 69 322 0.0 0.0 0.00 0.00 0.00 99 1014.4
20260906053412 69 322 0.0 0.0 0.00 0.00 0.00 99 1014.5
20260906052908 69 322 0.0 0.0 0.00 0.00 0.00 99 1014.5
20260906052404 69 322 0.0 0.0 0.00 0.00 0.00 99 1014.5
20260906051900 69 322 1.7 1.7 0.00 0.00 0.00 99 1014.5
20260906051400 68 322 0.0 0.0 0.00 0.00 0.00 99 1014.3
20260906050856 68 322 0.0 0.0 0.00 0.00 0.00 99 1014.3
20260906050350 69 322 0.0 0.0 0.00 0.00 0.00 99 1014.4
20260906045849 69 322 0.0 0.0 0.00 0.00 0.00 99 1014.5
20260906045343 69 322 0.0 0.0 0.00 0.00 0.00 99 1014.4
20260906044840 69 322 0.0 0.0 0.00 0.00 0.00 99 1014.4
20260906044334 69 322 0.0 0.0 0.00 0.00 0.00 99 1014.4
20260906043830 69 322 0.0 0.0 0.00 0.00 0.00 99 1014.4
20260906043326 69 322 0.0 0.0 0.00 0.00 0.00 99 1014.6
20260906042826 69 322 0.0 0.0 0.00 0.00 0.00 99 1014.5
20260906042325 69 322 0.0 0.0 0.00 0.00 0.00 99 1014.6
20260906041821 69 322 0.0 0.0 0.00 0.00 0.00 99 1014.7
20260906041316 69 322 0.0 0.0 0.00 0.00 0.00 99 1014.7
20260906040811 69 322 0.0 0.0 0.00 0.00 0.00 99 1014.8
20260906040306 69 322 0.0 0.0 0.00 0.00 0.00 99 1014.7
20260906035801 70 322 0.0 0.0 0.00 0.51 0.51 99 1014.8
20260906035257 70 322 0.0 0.0 0.00 0.51 0.51 99 1014.8
20260906034751 70 322 0.0 0.0 0.00 0.51 0.51 99 1015.1
20260906034246 69 322 0.0 0.0 0.00 0.51 0.51 99 1015.0
20260906033742 70 322 0.0 0.0 0.00 0.51 0.51 99 1015.1
20260906033242 70 322 0.0 0.0 0.00 0.51 0.51 99 1015.2
20260906032738 70 322 0.0 0.0 0.00 0.51 0.51 99 1014.9
20260906032238 70 322 0.0 0.0 0.00 0.51 0.51 99 1015.3
20260906031733 70 322 0.0 0.0 0.00 0.51 0.51 99 1015.2
20260906031229 70 322 0.0 0.0 0.00 0.51 0.51 99 1015.1
20260906030728 70 322 0.0 0.0 0.00 0.51 0.51 99 1015.2
20260906030223 70 322 0.0 0.0 0.00 0.51 0.51 99 1015.3
20260906025723 70 322 0.0 0.0 0.00 0.51 0.51 99 1015.3
20260906025218 70 322 0.0 0.0 0.07 0.51 0.51 99 1015.2
20260906024717 70 322 0.0 0.0 0.07 0.51 0.51 99 1015.4
20260906024216 70 322 0.9 0.9 0.00 0.50 0.50 99 1015.2
20260906023713 70 322 0.0 0.0 0.00 0.50 0.50 99 1015.2
20260906023213 70 322 0.0 0.9 0.00 0.50 0.50 99 1015.2
20260906022708 70 322 0.9 1.7 0.00 0.50 0.50 99 1015.3
20260906022203 70 322 0.0 0.9 0.00 0.50 0.50 99 1015.3
20260906021659 70 322 1.7 2.6 0.00 0.50 0.50 99 1015.0
20260906021157 70 322 2.6 2.6 0.00 0.50 0.50 99 1015.1
20260906020652 70 322 1.7 7.0 0.00 0.50 0.50 99 1015.1
20260906020147 70 318 4.3 7.0 0.00 0.50 0.50 99 1015.1
20260906015641 70 341 2.6 6.1 0.12 0.50 0.50 99 1014.8
20260906015141 71 353 2.6 2.6 0.12 0.50 0.50 99 1015.1
20260906014640 71 354 1.7 7.8 0.00 0.48 0.48 99 1015.1
20260906014137 71 2 1.7 5.2 0.00 0.48 0.48 99 1015.0
20260906013632 71 354 4.3 5.2 0.00 0.48 0.48 99 1014.9
20260906013128 70 273 0.0 0.0 0.00 0.48 0.48 99 1014.6
20260906012627 70 273 0.0 0.0 0.00 0.48 0.48 99 1014.3
20260906012122 70 273 0.0 0.0 0.00 0.48 0.48 99 1014.3
20260906011618 70 273 0.0 0.0 0.00 0.48 0.48 99 1014.2
20260906011118 70 273 0.0 0.0 0.00 0.48 0.48 99 1014.2
20260906010614 71 273 0.0 0.0 0.00 0.48 0.48 99 1014.0
20260906010110 71 273 0.0 0.0 0.00 0.48 0.48 99 1014.3
20260906005609 71 273 0.0 0.0 0.00 0.48 0.48 99 1014.2
20260906005109 71 273 0.0 0.0 0.00 0.48 0.48 98 1013.8
20260906004608 71 273 0.0 0.0 0.00 0.48 0.48 98 1013.8
20260906004103 71 273 0.0 0.0 0.00 0.48 0.48 97 1013.5
20260906003558 71 273 0.0 0.0 0.00 0.48 0.48 97 1013.7
20260906003055 72 273 0.0 0.0 0.00 0.48 0.48 97 1013.9
20260906002554 72 273 0.0 0.0 0.00 0.48 0.48 96 1013.7
20260906002050 72 273 0.0 0.0 0.00 0.48 0.48 95 1013.6
20260906001545 73 273 0.0 0.0 0.00 0.48 0.48 95 1013.7
20260906001045 73 273 0.0 0.9 0.00 0.48 0.48 95 1013.7
20260906000541 73 273 0.0 0.0 0.00 0.48 0.48 94 1013.8
20260906000036 73 273 0.0 0.0 0.00 0.48 0.48 94 1013.9
20260905235535 74 272 0.0 0.0 0.00 0.48 0.48 93 1013.7
20260905235031 74 272 0.0 0.0 0.00 0.48 0.48 92 1013.7
20260905234526 75 272 0.0 0.0 0.00 0.48 0.48 90 1013.8
20260905234020 75 272 0.0 0.0 0.00 0.48 0.48 90 1013.8
20260905233515 76 272 0.0 0.0 0.00 0.48 0.48 88 1013.9
20260905233015 76 272 0.0 0.0 0.00 0.48 0.48 87 1013.8
20260905232510 77 272 0.0 0.0 0.00 0.48 0.48 86 1013.8
20260905232006 77 272 0.0 0.0 0.00 0.48 0.48 86 1013.9
20260905231501 78 272 0.0 0.0 0.00 0.48 0.48 86 1013.8
20260905230958 78 272 0.0 0.0 0.00 0.48 0.48 86 1014.1
20260905230456 78 272 0.0 0.0 0.00 0.48 0.48 85 1013.8
20260905225954 79 272 0.0 0.9 0.00 0.48 0.48 83 1013.8
20260905225449 79 272 0.0 0.9 0.00 0.48 0.48 83 1013.8
20260905224944 80 272 0.9 0.9 0.00 0.48 0.48 82 1014.0
20260905224440 80 272 0.9 0.9 0.00 0.48 0.48 81 1013.9
20260905223939 80 272 1.7 1.7 0.00 0.48 0.48 78 1013.9
20260905223437 80 272 0.9 0.9 0.00 0.48 0.48 78 1013.9
20260905222932 81 272 1.7 1.7 0.00 0.48 0.48 78 1013.9
20260905222431 80 272 0.9 1.7 0.00 0.48 0.48 77 1013.8
20260905221927 80 272 1.7 1.7 0.00 0.48 0.48 75 1014.0
20260905221424 81 272 1.7 1.7 0.00 0.48 0.48 75 1013.8
20260905220920 81 272 1.7 2.6 0.00 0.48 0.48 74 1013.9
20260905220415 82 300 0.9 5.2 0.00 0.48 0.48 73 1013.9
20260905215914 82 301 1.7 1.7 0.00 0.48 0.48 74 1013.9
20260905215410 82 301 0.0 0.0 0.00 0.48 0.48 72 1013.8
20260905214906 82 301 1.7 2.6 0.00 0.48 0.48 71 1013.8
20260905214402 83 301 2.6 2.6 0.00 0.48 0.48 70 1013.8
20260905213856 83 301 0.9 1.7 0.00 0.48 0.48 70 1013.6
20260905213353 82 301 1.7 2.6 0.00 0.48 0.48 71 1013.7
20260905212853 83 290 5.2 7.0 0.00 0.48 0.48 68 1013.9
20260905212348 83 310 2.6 5.2 0.00 0.48 0.48 67 1013.6
20260905211847 85 323 4.3 5.2 0.00 0.48 0.48 66 1013.4
20260905211343 85 315 0.9 1.7 0.00 0.48 0.48 67 1013.5
20260905210839 84 315 1.7 2.6 0.00 0.48 0.48 68 1013.4
20260905210339 84 315 0.0 0.9 0.00 0.48 0.48 69 1013.4
20260905205838 83 315 4.3 5.2 0.00 0.48 0.48 69 1013.5
20260905205333 83 299 3.5 5.2 0.00 0.48 0.48 69 1013.4
20260905204832 83 271 1.7 3.5 0.00 0.48 0.48 70 1013.6
20260905204328 84 272 1.7 3.5 0.00 0.48 0.48 67 1013.2
20260905203827 83 290 0.9 2.6 0.00 0.48 0.48 69 1013.5
20260905203323 83 288 1.7 3.5 0.00 0.48 0.48 67 1013.4
20260905202818 84 259 1.7 2.6 0.00 0.48 0.48 68 1013.5
20260905202313 84 258 1.7 3.5 0.00 0.48 0.48 69 1013.7
20260905201809 84 267 2.6 3.5 0.00 0.48 0.48 71 1013.6
20260905201304 84 318 0.9 3.5 0.00 0.48 0.48 68 1013.7
20260905200758 84 318 0.9 3.5 0.00 0.48 0.48 67 1013.6
20260905200255 84 318 2.6 3.5 0.00 0.48 0.48 67 1013.5
20260905195752 83 318 0.0 0.9 0.00 0.48 0.48 70 1013.7
20260905195247 82 318 0.9 3.5 0.00 0.48 0.48 69 1014.0
20260905194743 83 317 3.5 6.1 0.00 0.48 0.48 68 1014.0
20260905194242 83 229 2.6 2.6 0.00 0.48 0.48 70 1014.2
20260905193742 83 202 1.7 5.2 0.00 0.48 0.48 70 1014.1
20260905193237 85 308 0.9 2.6 0.00 0.48 0.48 66 1014.1
20260905192733 84 309 0.0 1.7 0.00 0.48 0.48 65 1014.3
20260905192229 84 309 2.6 2.6 0.00 0.48 0.48 65 1014.3
20260905191728 83 309 1.7 5.2 0.00 0.48 0.48 66 1014.4
20260905191226 83 300 2.6 5.2 0.00 0.48 0.48 69 1014.4
20260905190725 83 259 1.7 3.5 0.00 0.48 0.48 69 1014.5
20260905190224 85 298 2.6 5.2 0.00 0.48 0.48 64 1014.4
20260905185723 85 209 0.9 1.7 0.00 0.48 0.48 65 1014.6
20260905185218 84 209 0.9 2.6 0.00 0.48 0.48 68 1014.8
20260905184713 83 26 0.0 1.7 0.00 0.48 0.48 70 1014.7
20260905184212 82 26 1.7 2.6 0.00 0.48 0.48 67 1015.0
20260905183711 83 26 0.9 2.6 0.00 0.48 0.48 67 1014.8
20260905183207 84 64 0.9 2.6 0.00 0.48 0.48 67 1014.9
20260905182706 84 64 3.5 3.5 0.00 0.48 0.48 66 1015.0
20260905182206 83 65 0.0 1.7 0.00 0.48 0.48 66 1014.9
20260905181701 82 65 1.7 2.6 0.00 0.48 0.48 68 1014.9
20260905181200 82 65 0.9 1.7 0.00 0.48 0.48 68 1014.9
20260905180655 82 59 1.7 2.6 0.00 0.48 0.48 74 1014.9
20260905180151 81 97 0.0 1.7 0.00 0.48 0.48 71 1015.0
20260905175649 80 55 0.0 1.7 0.00 0.48 0.48 75 1015.1
20260905175145 80 48 3.5 3.5 0.00 0.48 0.48 74 1015.2
20260905174641 80 47 2.6 3.5 0.00 0.48 0.48 75 1015.2
20260905174136 80 351 2.6 3.5 0.00 0.48 0.48 76 1015.4
20260905173632 80 348 1.7 2.6 0.00 0.48 0.48 74 1015.5
20260905173128 80 346 0.0 1.7 0.00 0.48 0.48 77 1015.7
20260905172626 80 9 1.7 1.7 0.00 0.48 0.48 76 1015.7
20260905172121 81 0 0.9 1.7 0.00 0.48 0.48 75 1015.9
20260905171618 80 359 3.5 3.5 0.00 0.48 0.48 75 1016.0
20260905171113 80 63 1.7 2.6 0.00 0.48 0.48 78 1015.9
20260905170610 80 2 0.9 2.6 0.00 0.48 0.48 79 1015.7
20260905170105 79 322 1.7 2.6 0.00 0.48 0.48 79 1015.9
20260905165600 79 322 0.0 1.7 0.00 0.48 0.48 83 1016.1
20260905165055 78 321 3.5 3.5 0.00 0.48 0.48 84 1016.3
20260905164550 78 322 2.6 3.5 0.00 0.48 0.48 80 1016.3
20260905164049 78 322 1.7 2.6 0.00 0.48 0.48 84 1016.3
20260905163546 79 323 3.5 6.1 0.00 0.48 0.48 82 1016.4
20260905163041 80 344 2.6 5.2 0.00 0.48 0.48 80 1016.4
20260905162538 79 94 0.0 2.6 0.00 0.48 0.48 83 1016.4
20260905162032 78 351 0.9 2.6 0.00 0.48 0.48 86 1016.5
20260905161532 77 293 1.7 3.5 0.00 0.48 0.48 87 1016.6
20260905161029 76 33 2.6 5.2 0.00 0.48 0.48 89 1016.6
20260905160528 76 345 2.6 7.0 0.00 0.48 0.48 90 1016.7
20260905160023 75 298 2.6 5.2 0.00 0.48 0.48 94 1016.6
20260905155523 74 11 0.9 5.2 0.00 0.48 0.48 96 1016.3
20260905155021 74 339 1.7 2.6 0.00 0.48 0.48 98 1016.6
20260905154517 73 352 0.0 3.5 0.00 0.48 0.48 99 1016.6
20260905154012 72 321 1.7 2.6 0.00 0.48 0.48 99 1016.5
20260905153508 71 7 3.5 6.1 0.00 0.48 0.48 99 1016.6
20260905153008 71 328 5.2 6.1 0.00 0.48 0.48 99 1016.7
20260905152508 71 335 5.2 7.0 0.00 0.48 0.48 99 1016.6
20260905152002 71 326 3.5 5.2 0.00 0.48 0.48 99 1016.1
20260905151458 71 202 2.6 2.6 0.00 0.48 0.48 99 1015.7
20260905150952 70 199 0.9 1.7 0.00 0.48 0.48 99 1015.5
20260905150448 69 198 1.7 1.7 0.00 0.48 0.48 99 1015.3
20260905145944 69 198 1.7 2.6 0.00 0.48 0.48 99 1014.9
20260905145440 68 199 3.5 6.1 0.00 0.48 0.48 99 1014.9
20260905144939 68 231 1.7 5.2 0.00 0.48 0.48 99 1014.9
20260905144434 68 149 6.1 8.7 0.00 0.48 0.48 99 1014.8
20260905143933 68 196 2.6 3.5 0.00 0.48 0.48 99 1015.0
20260905143432 68 163 3.5 6.1 0.00 0.48 0.48 99 1015.2
20260905142932 68 139 2.6 2.6 0.00 0.48 0.48 99 1015.3
20260905142431 68 143 4.3 5.2 0.00 0.48 0.48 99 1015.6
20260905141922 68 162 4.3 6.1 0.00 0.48 0.48 99 1015.7
20260905141421 68 210 1.7 3.5 0.00 0.48 0.48 99 1016.4
20260905140918 68 210 0.9 1.7 0.00 0.48 0.48 99 1016.5
20260905140413 68 230 1.7 2.6 0.00 0.48 0.48 99 1016.3
20260905135912 67 230 1.7 3.5 0.05 0.48 0.48 99 1016.5
20260905135408 67 230 1.7 2.6 0.12 0.48 0.48 99 1016.5
20260905134903 67 230 2.6 2.6 0.07 0.47 0.47 99 1016.6
20260905134401 67 232 0.0 0.0 0.00 0.46 0.46 99 1016.5
20260905133856 67 187 1.7 3.5 0.00 0.46 0.46 99 1016.7
20260905133351 67 143 2.6 5.2 0.00 0.46 0.46 99 1016.9
20260905132851 67 136 2.6 2.6 0.00 0.46 0.46 99 1016.9
20260905132347 67 135 2.6 3.5 0.05 0.46 0.46 99 1016.7
20260905131846 67 135 1.7 2.6 0.12 0.46 0.46 99 1016.8
20260905131342 67 135 1.7 2.6 0.19 0.45 0.45 99 1017.0
20260905130837 67 136 1.7 1.7 0.24 0.44 0.44 99 1017.4
20260905130335 67 135 3.5 3.5 0.19 0.42 0.42 99 1017.1
20260905125831 67 132 3.5 3.5 0.19 0.40 0.40 99 1017.2
20260905125326 67 269 0.9 0.9 0.17 0.39 0.39 99 1017.2
20260905124822 67 269 0.9 1.7 0.17 0.37 0.37 99 1017.2
20260905124318 67 269 0.0 1.7 0.19 0.36 0.36 99 1017.4
20260905123813 67 269 0.9 1.7 0.12 0.34 0.34 99 1017.0